This is the latest recevied weather packets stored in our database for station/object KY4GW. If no packets are shown the sender has not sent any weather packets the latest 10 day(s).
| Time | Temp. | Humidity | Pressure | Rain* | Wind** | Luminosity | Snow |
|---|---|---|---|---|---|---|---|
| 1777817886 | 14.44° C | 45% | 1023.5 hPa | 0 mm | - | 569 W/m² | - |
| 1777817584 | 14.44° C | 43% | 1023.5 hPa | 0 mm | - | 549 W/m² | - |
| 1777817280 | 14.44° C | 46% | 1023.5 hPa | 0 mm | - | 535 W/m² | - |
| 1777816977 | 13.89° C | 45% | 1023.5 hPa | 0 mm | - | 519 W/m² | - |
| 1777816673 | 13.33° C | 49% | 1023.5 hPa | 0 mm | - | 503 W/m² | - |
| 1777816371 | 12.78° C | 51% | 1023.5 hPa | 0 mm | - | 483 W/m² | - |
| 1777816069 | 12.78° C | 49% | 1023.5 hPa | 0 mm | - | 467 W/m² | - |
| 1777815766 | 12.78° C | 50% | 1023.5 hPa | 0 mm | - | 447 W/m² | - |
| 1777815463 | 12.78° C | 50% | 1023.5 hPa | 0 mm | - | 429 W/m² | - |
| 1777815160 | 12.22° C | 53% | 1023.5 hPa | 0 mm | - | 410 W/m² | - |
| 1777814857 | 12.22° C | 56% | 1023.1 hPa | 0 mm | - | 394 W/m² | - |
| 1777814552 | 12.22° C | 51% | 1023.1 hPa | 0 mm | - | 378 W/m² | - |
| 1777814250 | 11.67° C | 57% | 1023.1 hPa | 0 mm | - | 356 W/m² | - |
| 1777813947 | 11.67° C | 57% | 1023.5 hPa | 0 mm | - | 337 W/m² | - |
| 1777813645 | 11.67° C | 55% | 1023.5 hPa | 0 mm | - | 318 W/m² | - |
| 1777813342 | 11.67° C | 56% | 1023.5 hPa | 0 mm | - | 298 W/m² | - |
| 1777813040 | 11.11° C | 59% | 1023.8 hPa | 0 mm | - | 280 W/m² | - |
| 1777812737 | 10.56° C | 62% | 1023.8 hPa | 0 mm | - | 258 W/m² | - |
| 1777812433 | 10.56° C | 66% | 1023.8 hPa | 0 mm | - | 239 W/m² | - |
| 1777812131 | 10.56° C | 64% | 1023.8 hPa | 0 mm | - | 221 W/m² | - |
| 1777811829 | 10° C | 65% | 1023.8 hPa | 0 mm | - | 202 W/m² | - |
| 1777811527 | 9.44° C | 66% | 1023.8 hPa | 0 mm | - | 184 W/m² | - |
| 1777811223 | 8.89° C | 68% | 1023.5 hPa | 0 mm | - | 164 W/m² | - |
| 1777810920 | 8.33° C | 70% | 1023.5 hPa | 0 mm | - | 147 W/m² | - |
| 1777810616 | 7.78° C | 74% | 1023.5 hPa | 0 mm | - | 133 W/m² | - |
* Rain latest hour (hover to see other rain measurements)
** Current wind speed in m/s (hover to see current wind gust speed)